Time;durP1;ratioP1;P1;durP2;ratioP2;P2;SDS_P1;SDS_P2;PMS_P1;PMS_P2;Temp;Humidity;BMP_temperature;BMP_pressure;BME280_temperature;BME280_humidity;BME280_pressure;Samples;Min_cycle;Max_cycle;Signal;HPM_P1;HPM_P2
2022/01/21 00:00:22;;;;;;;10.77;2.97;;;1.10;99.90;;;;;;5075604;28;20431;-73
2022/01/21 00:02:48;;;;;;;11.13;2.22;;;1.10;99.90;;;;;;5088153;23;20052;-78
2022/01/21 00:05:13;;;;;;;13.07;2.90;;;1.10;99.90;;;;;;5066560;28;20036;-78
2022/01/21 00:07:39;;;;;;;12.55;2.58;;;1.10;99.90;;;;;;5084339;28;20057;-79
2022/01/21 00:10:07;;;;;;;18.17;3.05;;;1.10;99.90;;;;;;5084247;28;20024;-79
2022/01/21 00:12:34;;;;;;;14.68;2.33;;;1.10;99.90;;;;;;5085935;28;20505;-79
2022/01/21 00:15:00;;;;;;;9.70;2.30;;;1.10;99.90;;;;;;5087138;28;20027;-79
2022/01/21 00:17:25;;;;;;;14.98;2.60;;;1.10;99.90;;;;;;5084109;28;20440;-79
2022/01/21 00:30:03;;;;;;;13.63;2.75;;;1.10;99.90;;;;;;5088358;28;20040;-78
2022/01/21 00:30:49;;;;;;;14.43;3.47;;;1.10;99.90;;;;;;5082939;28;20300;-78
2022/01/21 00:33:14;;;;;;;16.77;2.58;;;1.10;99.90;;;;;;5084295;28;20270;-79
2022/01/21 00:35:40;;;;;;;17.13;3.20;;;1.10;99.90;;;;;;5085356;28;20021;-78
2022/01/21 00:38:05;;;;;;;17.13;3.38;;;1.10;99.90;;;;;;5093649;28;20032;-78
2022/01/21 00:40:33;;;;;;;12.77;2.45;;;1.00;99.90;;;;;;5084848;28;20032;-78
2022/01/21 00:43:59;;;;;;;20.75;3.78;;;1.00;99.90;;;;;;5071623;28;20016;-79
2022/01/21 00:45:53;;;;;;;23.20;4.28;;;1.00;99.90;;;;;;5073675;28;20444;-77
2022/01/21 00:48:19;;;;;;;22.90;3.35;;;1.00;99.90;;;;;;5065751;28;20041;-79
2022/01/21 00:50:47;;;;;;;17.30;3.83;;;1.00;99.90;;;;;;5090151;28;20031;-76
2022/01/21 00:53:13;;;;;;;19.98;4.55;;;1.00;99.90;;;;;;5091623;28;20020;-75
2022/01/21 00:55:38;;;;;;;18.60;3.97;;;1.00;99.90;;;;;;5090770;28;20036;-77
2022/01/21 00:58:04;;;;;;;26.23;4.18;;;1.00;99.90;;;;;;5093267;28;20024;-77
2022/01/21 01:00:31;;;;;;;14.48;3.42;;;1.00;99.90;;;;;;5071059;28;20024;-79
2022/01/21 01:02:57;;;;;;;19.75;2.95;;;1.00;99.90;;;;;;5085806;28;20025;-81
2022/01/21 01:05:23;;;;;;;14.23;2.83;;;1.00;99.90;;;;;;5084719;28;20020;-79
2022/01/21 01:07:49;;;;;;;22.38;3.65;;;0.90;99.90;;;;;;5082251;28;20035;-79
2022/01/21 01:10:19;;;;;;;16.92;2.95;;;0.90;99.90;;;;;;5065591;28;20052;-79
2022/01/21 01:12:53;;;;;;;24.52;3.58;;;0.90;99.90;;;;;;5064333;28;20125;-78
2022/01/21 01:20:49;;;;;;;31.65;5.07;;;1.00;99.90;;;;;;5082965;28;20045;-79
2022/01/21 01:23:26;;;;;;;20.13;4.05;;;1.00;99.90;;;;;;5082720;28;20032;-77
2022/01/21 01:28:36;;;;;;;;;;;1.00;99.90;;;;;;5085523;28;20043;-78
2022/01/21 01:31:02;;;;;;;22.08;2.83;;;1.00;99.90;;;;;;5067237;28;19991;-79
2022/01/21 01:33:35;;;;;;;34.15;3.33;;;1.00;99.90;;;;;;5090894;28;20028;-77
2022/01/21 01:36:02;;;;;;;13.73;2.83;;;1.10;99.90;;;;;;5092117;28;20021;-78
2022/01/21 01:38:58;;;;;;;16.88;3.10;;;1.10;99.90;;;;;;5076344;28;20034;-77
2022/01/21 01:41:22;;;;;;;21.38;3.17;;;1.10;99.90;;;;;;5095777;28;20047;-76
2022/01/21 01:51:59;;;;;;;16.58;2.88;;;1.00;99.90;;;;;;5097041;28;20345;-75
2022/01/21 01:54:30;;;;;;;20.75;2.70;;;1.00;99.90;;;;;;5076029;28;20033;-76
2022/01/21 01:56:57;;;;;;;19.48;2.85;;;0.90;99.90;;;;;;5083905;28;20050;-78
2022/01/21 01:59:23;;;;;;;14.93;2.67;;;0.80;99.90;;;;;;5083705;28;20029;-78
2022/01/21 02:02:03;;;;;;;18.88;2.72;;;0.80;99.90;;;;;;5082374;28;20052;-79
2022/01/21 02:04:29;;;;;;;16.85;2.65;;;0.80;99.90;;;;;;5082350;28;20071;-78
2022/01/21 02:06:55;;;;;;;22.92;2.75;;;0.80;99.90;;;;;;5082715;28;20031;-77
2022/01/21 02:09:22;;;;;;;20.95;3.40;;;0.80;99.90;;;;;;5083200;28;20017;-78
2022/01/21 02:11:47;;;;;;;20.58;3.22;;;0.80;99.90;;;;;;5083615;28;20093;-77
2022/01/21 02:14:20;;;;;;;21.67;2.83;;;0.80;99.90;;;;;;5063864;28;20449;-79
2022/01/21 02:17:12;;;;;;;26.83;3.28;;;0.80;99.90;;;;;;5083748;28;20020;-78
2022/01/21 02:22:28;;;;;;;17.08;3.20;;;0.80;99.90;;;;;;5085760;28;20073;-79
2022/01/21 02:24:58;;;;;;;24.80;2.67;;;0.80;99.90;;;;;;5084808;28;20119;-77
2022/01/21 02:27:24;;;;;;;23.02;2.90;;;0.80;99.90;;;;;;5085212;28;20023;-79
2022/01/21 02:29:59;;;;;;;22.58;2.78;;;0.80;99.90;;;;;;5068130;28;20031;-79
2022/01/21 02:32:25;;;;;;;21.63;3.85;;;0.80;99.90;;;;;;5082536;28;20029;-78
2022/01/21 02:34:50;;;;;;;24.17;3.53;;;0.80;99.90;;;;;;5082821;28;20024;-79
2022/01/21 02:37:18;;;;;;;20.52;3.10;;;0.90;99.90;;;;;;5082526;28;20035;-78
2022/01/21 02:39:45;;;;;;;41.72;3.63;;;0.80;99.90;;;;;;5079994;28;20043;-77
2022/01/21 02:42:12;;;;;;;24.90;3.72;;;0.90;99.90;;;;;;5080206;28;20365;-79
2022/01/21 02:44:39;;;;;;;33.95;3.92;;;0.80;99.90;;;;;;5088533;28;20086;-80
2022/01/21 02:47:06;;;;;;;25.60;4.32;;;0.90;99.90;;;;;;5089879;28;20017;-78
2022/01/21 02:49:32;;;;;;;33.72;4.25;;;0.90;99.90;;;;;;5088596;28;20020;-79
2022/01/21 02:52:03;;;;;;;30.05;3.97;;;0.80;99.90;;;;;;5084574;28;20036;-80
2022/01/21 02:54:31;;;;;;;24.65;3.60;;;0.90;99.90;;;;;;5084744;28;20058;-77
2022/01/21 02:56:58;;;;;;;19.95;2.78;;;0.90;99.90;;;;;;5090301;28;20129;-79
2022/01/21 02:59:24;;;;;;;30.73;3.60;;;0.90;99.90;;;;;;5069054;28;20122;-75
2022/01/21 03:01:50;;;;;;;24.70;3.80;;;0.90;99.90;;;;;;5097626;28;20048;-76
2022/01/21 03:04:23;;;;;;;27.40;3.35;;;1.00;99.90;;;;;;5079957;28;20043;-77
2022/01/21 03:06:49;;;;;;;27.88;3.53;;;1.00;99.90;;;;;;5097311;28;20036;-76
2022/01/21 03:09:15;;;;;;;27.40;3.42;;;1.00;99.90;;;;;;5097565;28;20020;-77
2022/01/21 03:11:40;;;;;;;36.78;4.10;;;1.00;99.90;;;;;;5065946;28;20033;-80
2022/01/21 03:14:06;;;;;;;22.05;3.53;;;1.00;99.90;;;;;;5062759;28;20088;-80
2022/01/21 03:16:32;;;;;;;31.23;4.30;;;1.10;99.90;;;;;;5081989;28;20060;-79
2022/01/21 03:18:57;;;;;;;20.13;3.03;;;1.10;99.90;;;;;;5084852;28;20033;-76
2022/01/21 03:21:23;;;;;;;33.97;4.28;;;1.20;99.90;;;;;;5071335;28;20025;-79
2022/01/21 03:23:51;;;;;;;27.10;3.13;;;1.20;99.90;;;;;;5077757;28;20108;-79
2022/01/21 03:26:20;;;;;;;30.52;3.30;;;1.30;99.90;;;;;;5086130;28;20059;-80
2022/01/21 03:28:48;;;;;;;38.75;3.47;;;1.30;99.90;;;;;;5081974;28;20048;-80
2022/01/21 03:31:14;;;;;;;30.17;3.50;;;1.30;99.90;;;;;;5063945;28;20094;-79
2022/01/21 03:33:40;;;;;;;31.25;3.53;;;1.30;99.90;;;;;;5080497;28;20024;-80
2022/01/21 03:36:07;;;;;;;21.45;3.42;;;1.40;99.90;;;;;;5081744;28;20021;-79
2022/01/21 03:38:34;;;;;;;31.05;4.25;;;1.50;99.90;;;;;;5063941;28;20016;-80
2022/01/21 03:40:59;;;;;;;30.27;3.45;;;1.40;99.90;;;;;;5063477;28;20036;-79
2022/01/21 03:43:25;;;;;;;26.75;3.53;;;1.50;99.90;;;;;;5060167;28;20024;-79
2022/01/21 03:45:52;;;;;;;28.38;3.58;;;1.50;99.90;;;;;;5084019;28;20015;-79
2022/01/21 03:48:18;;;;;;;36.90;3.75;;;1.50;99.90;;;;;;5061450;28;20031;-79
2022/01/21 03:50:45;;;;;;;34.20;3.25;;;1.50;99.90;;;;;;5079736;28;20032;-80
2022/01/21 03:53:11;;;;;;;26.58;3.40;;;1.50;99.90;;;;;;5081062;28;20028;-79
2022/01/21 03:55:37;;;;;;;29.83;4.03;;;1.50;99.90;;;;;;5081333;28;20391;-79
2022/01/21 03:58:05;;;;;;;29.02;3.83;;;1.60;99.90;;;;;;5082834;28;20027;-80
2022/01/21 04:00:43;;;;;;;30.17;4.03;;;1.60;99.90;;;;;;5082696;28;20016;-80
2022/01/21 04:03:09;;;;;;;39.85;3.95;;;1.70;99.90;;;;;;5064011;28;20032;-80
2022/01/21 04:05:35;;;;;;;27.05;4.20;;;1.80;99.90;;;;;;5079252;28;20052;-80
2022/01/21 04:08:05;;;;;;;36.05;4.45;;;1.80;99.90;;;;;;5080300;28;20067;-77
2022/01/21 04:10:31;;;;;;;31.00;3.65;;;1.90;99.90;;;;;;5075204;28;20389;-77
2022/01/21 04:12:57;;;;;;;32.03;3.90;;;1.90;99.90;;;;;;5075240;28;20036;-76
2022/01/21 04:15:23;;;;;;;38.83;4.65;;;1.90;99.90;;;;;;5073899;28;20051;-75
2022/01/21 04:17:49;;;;;;;30.60;3.75;;;2.00;99.90;;;;;;5074605;28;20020;-76
2022/01/21 04:20:16;;;;;;;33.28;3.70;;;2.10;99.90;;;;;;5073921;28;20036;-76
2022/01/21 04:22:42;;;;;;;27.92;3.55;;;2.10;99.90;;;;;;5058049;28;20021;-77
2022/01/21 04:25:09;;;;;;;30.70;3.30;;;2.10;99.90;;;;;;5077503;28;20028;-77
2022/01/21 04:27:35;;;;;;;27.83;3.90;;;2.10;99.90;;;;;;5077589;28;20091;-76
2022/01/21 04:30:02;;;;;;;39.08;3.80;;;2.10;99.90;;;;;;5078943;28;20032;-77
2022/01/21 04:32:28;;;;;;;33.25;4.53;;;2.20;99.90;;;;;;5080595;28;20032;-77
2022/01/21 04:34:54;;;;;;;32.45;4.30;;;2.20;99.90;;;;;;5077978;28;20020;-78
2022/01/21 04:37:19;;;;;;;28.17;4.60;;;2.20;99.90;;;;;;5062008;28;20039;-76
2022/01/21 04:40:09;;;;;;;34.60;4.13;;;2.20;99.90;;;;;;5081479;28;20051;-77
2022/01/21 04:48:02;;;;;;;45.25;4.22;;;2.20;99.90;;;;;;5078472;28;20078;-77
2022/01/21 04:50:32;;;;;;;30.00;4.03;;;2.20;99.90;;;;;;5080377;28;20028;-77
2022/01/21 04:52:58;;;;;;;29.55;3.42;;;2.20;99.90;;;;;;5087114;28;20059;-76
2022/01/21 04:55:23;;;;;;;30.45;4.00;;;2.20;99.90;;;;;;5098224;28;20036;-77
2022/01/21 04:57:49;;;;;;;32.47;3.70;;;2.20;99.90;;;;;;5091098;28;20055;-78
2022/01/21 05:00:14;;;;;;;28.67;3.72;;;2.20;99.90;;;;;;5080733;28;20012;-75
2022/01/21 05:02:40;;;;;;;33.63;4.95;;;2.20;99.90;;;;;;5073883;28;20139;-77
2022/01/21 05:05:07;;;;;;;29.65;4.05;;;2.20;99.90;;;;;;5076004;28;20029;-77
2022/01/21 05:07:36;;;;;;;35.95;4.95;;;2.30;99.90;;;;;;5079352;28;20047;-77
2022/01/21 05:10:03;;;;;;;44.85;5.63;;;2.30;99.90;;;;;;5083798;28;20043;-78
2022/01/21 05:12:29;;;;;;;34.00;4.43;;;2.30;99.90;;;;;;5085863;28;20070;-78
2022/01/21 05:17:24;;;;;;;35.33;3.78;;;2.30;99.90;;;;;;5085875;28;20073;-77
2022/01/21 05:19:50;;;;;;;25.73;3.45;;;2.30;99.90;;;;;;5081164;28;20024;-77
2022/01/21 05:22:16;;;;;;;40.58;4.00;;;2.30;99.90;;;;;;5081444;28;20092;-78
2022/01/21 05:24:41;;;;;;;39.67;3.78;;;2.30;99.90;;;;;;5081712;28;20025;-77
2022/01/21 05:27:08;;;;;;;28.20;3.45;;;2.30;99.90;;;;;;5082793;28;20032;-78
2022/01/21 05:29:34;;;;;;;30.55;4.00;;;2.30;99.90;;;;;;5082155;28;20021;-78
2022/01/21 05:32:02;;;;;;;29.15;3.38;;;2.40;99.90;;;;;;5070669;28;20056;-77
2022/01/21 05:34:28;;;;;;;36.50;3.63;;;2.40;99.90;;;;;;5080139;28;20183;-77
2022/01/21 05:36:53;;;;;;;32.28;4.10;;;2.40;99.90;;;;;;5081574;28;20236;-77
2022/01/21 05:39:20;;;;;;;30.15;3.53;;;2.40;99.90;;;;;;5091903;28;20043;-77
2022/01/21 05:41:49;;;;;;;20.73;2.95;;;2.40;99.90;;;;;;5094178;28;20024;-77
2022/01/21 05:46:23;;;;;;;33.33;3.58;;;2.50;99.90;;;;;;5093183;28;20016;-76
2022/01/21 05:47:07;;;;;;;21.17;3.10;;;2.50;99.90;;;;;;5090930;28;20111;-76
2022/01/21 05:49:35;;;;;;;24.98;3.40;;;2.50;99.90;;;;;;5072554;28;20025;-76
2022/01/21 05:52:06;;;;;;;21.33;3.33;;;2.50;99.90;;;;;;5073675;28;20028;-77
2022/01/21 05:54:32;;;;;;;27.13;3.20;;;2.50;99.90;;;;;;5074134;28;20105;-76
2022/01/21 05:56:58;;;;;;;16.73;2.67;;;2.60;99.90;;;;;;5092753;28;20035;-78
2022/01/21 05:59:24;;;;;;;28.50;3.30;;;2.50;99.90;;;;;;5098036;28;20052;-75
2022/01/21 06:01:50;;;;;;;29.88;3.28;;;2.50;99.90;;;;;;5067328;28;20056;-76
2022/01/21 06:04:16;;;;;;;26.58;3.10;;;2.50;99.90;;;;;;5088400;23;20040;-77
2022/01/21 06:06:42;;;;;;;31.42;2.75;;;2.50;99.90;;;;;;5056164;28;20028;-77
2022/01/21 06:09:07;;;;;;;24.88;3.03;;;2.40;99.90;;;;;;5074790;28;20028;-77
2022/01/21 06:11:34;;;;;;;32.15;3.13;;;2.50;99.90;;;;;;5075471;28;20021;-75
2022/01/21 06:14:01;;;;;;;26.30;3.05;;;2.50;99.90;;;;;;5082940;28;20036;-76
2022/01/21 06:16:28;;;;;;;28.52;3.60;;;2.50;99.90;;;;;;5080546;28;20048;-76
2022/01/21 06:18:54;;;;;;;22.80;2.83;;;2.40;99.90;;;;;;5060159;28;20047;-77
2022/01/21 06:21:19;;;;;;;24.70;3.05;;;2.40;99.90;;;;;;5082245;28;20094;-78
2022/01/21 06:23:45;;;;;;;82.53;30.95;;;2.40;99.90;;;;;;5088272;28;20024;-79
2022/01/21 06:26:11;;;;;;;26.92;4.43;;;2.40;99.90;;;;;;5083733;28;20028;-79
2022/01/21 06:28:36;;;;;;;18.98;2.97;;;2.40;99.90;;;;;;5068662;28;20086;-78
2022/01/21 06:31:02;;;;;;;17.77;3.15;;;2.40;99.90;;;;;;5084262;28;20032;-79
2022/01/21 06:33:28;;;;;;;18.75;2.80;;;2.30;99.90;;;;;;5079978;28;20024;-76
2022/01/21 06:35:53;;;;;;;20.20;3.42;;;2.30;99.90;;;;;;5062167;28;20025;-76
2022/01/21 06:38:21;;;;;;;25.90;3.70;;;2.30;99.90;;;;;;5077479;28;20104;-78
2022/01/21 06:40:49;;;;;;;22.55;2.85;;;2.30;99.90;;;;;;5079675;28;20029;-77
2022/01/21 06:43:15;;;;;;;27.48;2.80;;;2.30;99.90;;;;;;5063858;28;20017;-78
2022/01/21 06:45:41;;;;;;;21.95;2.75;;;2.20;99.90;;;;;;5062656;28;20455;-77
2022/01/21 06:48:07;;;;;;;20.48;3.53;;;2.20;99.90;;;;;;5080891;28;20025;-78
2022/01/21 06:50:36;;;;;;;27.38;3.60;;;2.20;99.90;;;;;;5078799;28;20044;-78
2022/01/21 06:53:02;;;;;;;27.63;6.00;;;2.10;99.90;;;;;;5062546;28;20530;-78
2022/01/21 06:55:27;;;;;;;28.55;3.50;;;2.10;99.90;;;;;;5059479;28;20074;-78
2022/01/21 06:57:53;;;;;;;27.15;3.75;;;2.10;99.90;;;;;;5078564;28;20032;-78
2022/01/21 07:00:20;;;;;;;23.73;3.42;;;2.10;99.90;;;;;;5078304;28;20025;-78
2022/01/21 07:02:46;;;;;;;18.02;2.55;;;2.00;99.90;;;;;;5077307;28;20032;-77
2022/01/21 07:05:13;;;;;;;18.75;2.90;;;2.00;99.90;;;;;;5081556;28;20458;-77
2022/01/21 07:07:38;;;;;;;19.77;3.10;;;2.00;99.90;;;;;;5077997;28;20031;-79
2022/01/21 07:10:06;;;;;;;15.88;3.08;;;1.90;99.90;;;;;;5078967;28;20032;-75
2022/01/21 07:12:33;;;;;;;22.45;2.72;;;1.90;99.90;;;;;;5085963;28;20048;-77
2022/01/21 07:14:59;;;;;;;21.50;2.70;;;1.90;99.90;;;;;;5060559;28;20127;-77
2022/01/21 07:17:24;;;;;;;25.60;3.40;;;1.90;99.90;;;;;;5079241;28;20101;-76
2022/01/21 07:19:50;;;;;;;22.13;2.75;;;1.90;99.90;;;;;;5076773;28;20025;-78
2022/01/21 07:22:16;;;;;;;41.65;10.93;;;1.90;99.90;;;;;;5074863;28;20028;-76
2022/01/21 07:24:42;;;;;;;18.00;3.03;;;1.90;99.90;;;;;;5077147;28;20078;-77
2022/01/21 07:27:08;;;;;;;20.60;3.17;;;1.90;99.90;;;;;;5079169;28;20054;-78
2022/01/21 07:29:33;;;;;;;13.23;3.00;;;1.90;99.90;;;;;;5079570;28;20028;-77
2022/01/21 07:31:59;;;;;;;26.48;6.00;;;1.80;99.90;;;;;;5077622;28;20144;-75
2022/01/21 07:34:26;;;;;;;21.02;5.30;;;1.90;99.90;;;;;;5078339;28;20025;-77
2022/01/21 07:36:56;;;;;;;20.70;5.20;;;1.90;99.90;;;;;;5077170;28;20028;-75
2022/01/21 07:39:22;;;;;;;28.60;3.20;;;1.90;99.90;;;;;;5060023;28;20477;-76
2022/01/21 07:41:48;;;;;;;17.50;2.90;;;1.90;99.90;;;;;;5070399;28;20033;-75
2022/01/21 07:44:14;;;;;;;20.98;2.92;;;2.00;99.90;;;;;;5065603;28;20503;-77
2022/01/21 07:46:41;;;;;;;19.77;3.28;;;2.00;99.90;;;;;;5075233;28;20021;-77
2022/01/21 07:49:07;;;;;;;24.15;3.70;;;1.90;99.90;;;;;;5076888;28;20489;-76
2022/01/21 07:51:33;;;;;;;16.85;3.40;;;2.00;99.90;;;;;;5059982;28;20025;-76
2022/01/21 07:53:59;;;;;;;16.42;3.30;;;2.00;99.90;;;;;;5081138;28;20029;-77
2022/01/21 07:56:24;;;;;;;24.52;4.70;;;2.10;99.90;;;;;;5081439;28;20062;-77
2022/01/21 07:58:51;;;;;;;13.88;2.97;;;2.10;99.90;;;;;;5080077;28;20053;-77
2022/01/21 08:01:17;;;;;;;19.85;3.58;;;2.30;99.90;;;;;;5080133;28;20025;-78
2022/01/21 08:03:42;;;;;;;16.80;2.95;;;2.50;99.90;;;;;;5079008;28;20082;-78
2022/01/21 08:06:08;;;;;;;17.30;3.03;;;2.80;99.90;;;;;;5078039;28;20103;-79
2022/01/21 08:08:34;;;;;;;14.40;2.70;;;2.90;99.90;;;;;;5062884;28;20021;-75
2022/01/21 08:10:59;;;;;;;21.95;4.00;;;3.00;99.90;;;;;;5080400;28;20422;-78
2022/01/21 08:13:27;;;;;;;13.18;2.88;;;3.10;99.90;;;;;;5079527;28;20033;-74
2022/01/21 08:15:53;;;;;;;25.70;3.85;;;3.20;99.90;;;;;;5076408;28;20017;-77
2022/01/21 08:18:19;;;;;;;22.08;3.72;;;3.30;99.90;;;;;;5077344;28;20035;-76
2022/01/21 08:20:44;;;;;;;17.27;2.97;;;3.30;99.90;;;;;;5077260;28;20035;-75
2022/01/21 08:23:11;;;;;;;17.50;2.55;;;3.20;99.90;;;;;;5077709;28;20028;-77
2022/01/21 08:25:37;;;;;;;12.90;2.33;;;3.10;99.90;;;;;;5060312;28;20032;-77
2022/01/21 08:28:03;;;;;;;16.67;2.60;;;3.00;99.90;;;;;;5078938;28;20024;-80
2022/01/21 08:30:29;;;;;;;13.40;1.90;;;2.90;99.90;;;;;;5079288;28;20474;-75
2022/01/21 08:32:54;;;;;;;14.75;2.42;;;2.80;99.90;;;;;;5077077;28;20029;-76
2022/01/21 08:35:20;;;;;;;18.50;2.92;;;2.70;99.90;;;;;;5076618;28;20037;-77
2022/01/21 08:37:46;;;;;;;15.13;3.70;;;2.70;99.90;;;;;;5078611;28;20130;-76
2022/01/21 08:40:12;;;;;;;9.82;2.47;;;2.80;99.90;;;;;;5077598;28;20052;-76
2022/01/21 08:42:38;;;;;;;13.65;2.28;;;2.80;99.90;;;;;;5084876;28;20031;-76
2022/01/21 08:45:04;;;;;;;17.38;2.20;;;2.90;99.90;;;;;;5059534;28;20024;-78
2022/01/21 08:47:30;;;;;;;12.07;2.67;;;3.30;99.90;;;;;;5052852;28;20461;-75
2022/01/21 08:50:00;;;;;;;13.27;2.25;;;4.20;99.90;;;;;;5076778;28;20025;-77
2022/01/21 08:52:28;;;;;;;14.57;1.95;;;;;;;;;;5078880;28;20020;-75
2022/01/21 08:54:54;;;;;;;13.68;2.08;;;;;;;;;;5077136;28;20028;-77
2022/01/21 08:57:20;;;;;;;10.13;2.60;;;;;;;;;;5077549;28;20036;-76
2022/01/21 08:59:49;;;;;;;18.63;3.75;;;;;;;;;;5082006;28;20440;-77
2022/01/21 09:02:15;;;;;;;14.48;2.42;;;;;;;;;;5082221;28;20024;-76
2022/01/21 09:04:41;;;;;;;9.38;2.13;;;5.40;99.90;;;;;;5077382;28;20128;-76
2022/01/21 09:07:06;;;;;;;13.13;2.92;;;10.90;97.90;;;;;;5076360;28;20056;-76
2022/01/21 09:09:32;;;;;;;11.80;2.45;;;11.30;95.60;;;;;;5075924;28;20020;-76
2022/01/21 09:12:00;;;;;;;15.50;4.47;;;11.70;93.00;;;;;;5077414;28;20035;-77
2022/01/21 09:14:30;;;;;;;45.53;12.32;;;12.00;91.40;;;;;;5084240;28;20021;-76
2022/01/21 09:16:57;;;;;;;40.67;8.27;;;12.70;93.80;;;;;;5088130;28;20154;-76
2022/01/21 09:19:24;;;;;;;31.10;6.57;;;12.90;84.30;;;;;;5085376;28;20024;-75
2022/01/21 09:21:55;;;;;;;51.33;11.82;;;;;;;;;;5083566;28;20020;-75
2022/01/21 09:24:21;;;;;;;25.92;6.05;;;13.70;73.60;;;;;;5063483;28;20605;-76
2022/01/21 09:26:48;;;;;;;9.50;2.25;;;13.70;74.20;;;;;;5077180;28;20020;-76
2022/01/21 09:29:14;;;;;;;14.77;2.83;;;13.90;70.50;;;;;;5059131;28;20029;-75
2022/01/21 09:31:40;;;;;;;13.02;2.72;;;13.90;68.20;;;;;;5083058;28;20073;-76
2022/01/21 09:34:06;;;;;;;11.68;2.50;;;14.10;67.20;;;;;;5078549;28;20107;-76
2022/01/21 09:36:32;;;;;;;14.40;2.38;;;14.40;65.10;;;;;;5076111;28;20020;-76
2022/01/21 09:39:00;;;;;;;15.60;2.85;;;14.50;62.40;;;;;;5077745;28;20040;-78
2022/01/21 09:41:28;;;;;;;9.20;2.08;;;14.50;61.70;;;;;;5077906;28;20021;-76
2022/01/21 09:43:54;;;;;;;8.05;2.10;;;14.40;61.00;;;;;;5077596;28;20023;-78
2022/01/21 09:46:33;;;;;;;13.80;2.53;;;13.80;60.80;;;;;;5077957;28;20028;-76
2022/01/21 09:49:20;;;;;;;15.82;2.63;;;12.70;61.60;;;;;;5078284;28;20025;-77
2022/01/21 09:51:49;;;;;;;15.05;3.65;;;11.60;67.20;;;;;;5079547;28;20025;-76
2022/01/21 09:54:15;;;;;;;10.48;2.10;;;10.60;70.00;;;;;;5079187;28;20389;-77
2022/01/21 09:56:42;;;;;;;12.73;2.85;;;10.00;72.10;;;;;;5079025;28;20109;-76
2022/01/21 09:59:08;;;;;;;13.88;2.53;;;9.40;74.90;;;;;;5077264;28;20031;-76
2022/01/21 10:01:35;;;;;;;14.55;2.58;;;9.00;77.80;;;;;;5061860;28;20029;-77
2022/01/21 10:04:01;;;;;;;16.60;6.70;;;8.60;80.20;;;;;;5061390;28;20036;-77
2022/01/21 10:06:28;;;;;;;16.83;3.22;;;8.30;83.40;;;;;;5076781;28;20421;-76
2022/01/21 10:08:57;;;;;;;9.65;2.40;;;8.10;85.70;;;;;;5079197;28;20027;-78
2022/01/21 10:11:24;;;;;;;12.48;1.92;;;7.80;87.80;;;;;;5076970;28;20037;-75
2022/01/21 10:13:51;;;;;;;14.35;2.83;;;7.70;90.00;;;;;;5077309;28;20017;-78
2022/01/21 10:16:17;;;;;;;9.00;2.15;;;7.60;90.90;;;;;;5075141;28;20025;-77
2022/01/21 10:19:05;;;;;;;11.52;2.30;;;7.40;92.30;;;;;;5076801;28;20021;-76
2022/01/21 10:21:37;;;;;;;13.95;2.42;;;7.20;94.10;;;;;;5072951;28;20032;-76
2022/01/21 10:24:11;;;;;;;26.88;5.88;;;7.10;95.80;;;;;;5073992;28;20032;-76
2022/01/21 10:26:52;;;;;;;12.98;2.22;;;7.00;97.30;;;;;;5073537;28;20017;-78
2022/01/21 10:29:17;;;;;;;18.08;2.25;;;7.10;98.80;;;;;;5076856;28;20055;-76
2022/01/21 10:32:00;;;;;;;17.50;3.00;;;7.00;99.80;;;;;;5074959;28;20481;-77
2022/01/21 10:34:35;;;;;;;12.45;2.08;;;6.90;99.90;;;;;;5074057;28;20103;-75
2022/01/21 10:37:10;;;;;;;12.18;2.35;;;6.90;99.90;;;;;;5073946;28;20020;-75
2022/01/21 10:40:07;;;;;;;14.98;2.85;;;6.90;99.90;;;;;;5075720;28;20031;-76
2022/01/21 10:42:32;;;;;;;28.13;4.50;;;6.80;99.90;;;;;;5078438;28;20056;-79
2022/01/21 10:44:59;;;;;;;20.90;4.28;;;6.70;99.90;;;;;;5075141;28;20035;-77
2022/01/21 10:47:30;;;;;;;21.35;4.63;;;6.70;99.90;;;;;;5057931;28;20529;-79
2022/01/21 10:50:08;;;;;;;32.03;7.60;;;6.70;99.90;;;;;;5076213;28;20020;-78
2022/01/21 10:52:46;;;;;;;29.02;9.10;;;6.60;99.90;;;;;;5074927;28;20028;-77
2022/01/21 10:55:38;;;;;;;37.63;4.80;;;6.60;99.90;;;;;;5077941;28;20183;-76
2022/01/21 10:58:07;;;;;;;25.30;5.20;;;6.70;99.90;;;;;;5078989;28;20032;-76
2022/01/21 11:00:34;;;;;;;17.23;3.50;;;6.70;99.90;;;;;;5075401;28;20028;-77
2022/01/21 11:03:11;;;;;;;21.77;4.30;;;6.70;99.90;;;;;;5075010;28;20112;-76
2022/01/21 11:05:41;;;;;;;25.55;3.65;;;6.80;99.90;;;;;;5079430;28;20453;-77
2022/01/21 11:08:09;;;;;;;22.48;4.28;;;6.80;99.90;;;;;;5077573;28;20055;-75
2022/01/21 11:10:38;;;;;;;20.00;4.57;;;6.90;99.90;;;;;;5080224;28;20027;-77
2022/01/21 11:13:27;;;;;;;18.90;4.05;;;6.90;99.90;;;;;;5077246;28;20509;-76
2022/01/21 11:15:59;;;;;;;22.13;4.63;;;6.90;99.90;;;;;;5073880;28;20421;-77
2022/01/21 11:18:26;;;;;;;26.65;6.18;;;7.00;99.90;;;;;;5074810;28;20025;-77
2022/01/21 11:21:03;;;;;;;22.30;3.95;;;7.20;99.90;;;;;;5074967;28;20029;-76
2022/01/21 11:23:32;;;;;;;29.45;5.10;;;7.40;99.90;;;;;;5077639;28;20021;-76
2022/01/21 11:26:08;;;;;;;24.52;5.20;;;7.50;99.90;;;;;;5074815;28;20040;-75
2022/01/21 11:28:38;;;;;;;33.90;5.50;;;7.70;99.90;;;;;;5074994;28;20099;-76
2022/01/21 11:31:04;;;;;;;28.08;4.85;;;7.90;99.90;;;;;;5078075;28;20027;-77
2022/01/21 11:33:30;;;;;;;25.77;5.38;;;8.10;99.90;;;;;;5079445;28;20037;-77
2022/01/21 11:35:56;;;;;;;27.80;4.97;;;8.10;99.90;;;;;;5082615;28;20020;-76
2022/01/21 11:38:24;;;;;;;23.35;4.97;;;8.10;99.90;;;;;;5086582;28;20029;-77
2022/01/21 11:40:51;;;;;;;25.52;5.20;;;8.20;99.90;;;;;;5083975;28;20027;-76
2022/01/21 11:43:18;;;;;;;17.38;4.55;;;8.10;99.90;;;;;;5084973;28;20077;-77
2022/01/21 11:51:33;;;;;;;28.25;4.20;;;8.00;99.90;;;;;;5086818;28;20032;-75
2022/01/21 11:54:05;;;;;;;35.75;5.00;;;8.00;99.90;;;;;;5078675;28;20044;-76
2022/01/21 11:56:42;;;;;;;28.58;5.32;;;7.80;99.90;;;;;;5059280;28;20035;-76
2022/01/21 11:59:27;;;;;;;28.90;5.30;;;7.80;99.90;;;;;;5080165;28;20033;-76
2022/01/21 12:01:53;;;;;;;23.90;4.75;;;7.70;99.90;;;;;;5078168;28;20116;-76
2022/01/21 12:04:31;;;;;;;26.73;4.78;;;7.60;99.90;;;;;;5104638;23;20048;-77
2022/01/21 12:07:01;;;;;;;25.38;4.13;;;7.60;99.90;;;;;;5112228;28;20032;-79
2022/01/21 12:09:59;;;;;;;34.13;5.25;;;7.70;99.90;;;;;;5101767;28;20039;-77
2022/01/21 12:12:47;;;;;;;29.48;4.03;;;7.80;99.90;;;;;;5103497;28;20036;-77
2022/01/21 12:19:05;;;;;;;25.85;3.97;;;8.00;99.90;;;;;;5101572;28;20425;-78
2022/01/21 12:21:37;;;;;;;21.08;3.35;;;8.20;99.90;;;;;;5101401;28;20141;-76
2022/01/21 12:24:03;;;;;;;26.52;4.35;;;8.30;99.90;;;;;;5104414;28;20012;-77
2022/01/21 12:26:30;;;;;;;20.75;3.80;;;8.30;99.90;;;;;;5104611;28;20106;-78
2022/01/21 12:28:57;;;;;;;28.33;5.28;;;8.20;99.90;;;;;;5103640;28;20023;-79
2022/01/21 12:31:46;;;;;;;26.75;4.95;;;8.00;99.90;;;;;;5104730;28;20022;-77
2022/01/21 12:34:14;;;;;;;25.02;4.07;;;7.70;99.90;;;;;;5112764;28;20009;-77
2022/01/21 12:36:54;;;;;;;24.33;4.18;;;7.60;99.90;;;;;;5119829;28;20022;-77
2022/01/21 12:39:44;;;;;;;20.02;3.85;;;7.50;99.90;;;;;;5102389;28;20074;-76
2022/01/21 12:42:24;;;;;;;20.05;2.92;;;7.50;99.90;;;;;;5101733;28;20028;-77
2022/01/21 12:45:07;;;;;;;25.30;4.88;;;7.50;99.90;;;;;;5097959;28;20082;-79
2022/01/21 12:47:41;;;;;;;18.48;3.00;;;7.40;99.90;;;;;;5101928;28;20020;-77
2022/01/21 12:50:11;;;;;;;20.80;3.15;;;7.40;99.90;;;;;;5099959;28;20028;-78
2022/01/21 12:53:24;;;;;;;19.50;3.88;;;7.40;99.90;;;;;;5100129;28;20112;-77
2022/01/21 12:55:55;;;;;;;23.55;3.00;;;7.50;99.90;;;;;;5095289;28;20043;-76
2022/01/21 12:58:32;;;;;;;27.77;3.85;;;7.50;99.90;;;;;;5102041;28;20054;-78
2022/01/21 13:01:04;;;;;;;22.02;4.03;;;7.60;99.90;;;;;;5101213;28;20024;-78
2022/01/21 13:03:55;;;;;;;16.20;3.33;;;7.70;99.90;;;;;;5101618;28;20465;-77
2022/01/21 13:07:12;;;;;;;36.47;10.77;;;7.80;99.90;;;;;;5097793;28;20103;-76
2022/01/21 13:10:07;;;;;;;32.20;4.20;;;7.90;99.90;;;;;;5037556;28;20025;-78
2022/01/21 13:15:46;;;;;;;18.17;2.90;;;8.70;99.90;;;;;;5100742;28;20055;-77
2022/01/21 13:18:18;;;;;;;19.23;3.25;;;9.60;99.90;;;;;;5101758;28;20027;-79
2022/01/21 13:20:48;;;;;;;20.92;3.20;;;10.30;99.90;;;;;;5106493;28;20020;-78
2022/01/21 13:23:45;;;;;;;23.42;3.33;;;10.90;99.90;;;;;;5106384;28;20028;-77
2022/01/21 13:26:23;;;;;;;25.88;3.65;;;11.00;99.90;;;;;;5099638;28;20024;-78
2022/01/21 13:29:00;;;;;;;14.70;3.42;;;10.80;99.90;;;;;;5105582;28;20092;-78
2022/01/21 13:31:28;;;;;;;23.90;3.50;;;10.60;99.90;;;;;;5106341;28;20481;-78
2022/01/21 13:34:09;;;;;;;22.27;3.92;;;10.40;99.90;;;;;;5098914;28;20477;-77
2022/01/21 13:36:55;;;;;;;42.28;5.03;;;10.10;99.90;;;;;;5100425;28;20030;-78
2022/01/21 13:39:22;;;;;;;24.23;3.38;;;10.10;99.90;;;;;;5100289;28;20024;-77
2022/01/21 13:41:53;;;;;;;17.85;4.13;;;10.10;99.90;;;;;;5098234;28;20031;-77
2022/01/21 13:44:35;;;;;;;17.25;3.13;;;9.80;99.90;;;;;;5099826;28;20020;-77
2022/01/21 13:47:04;;;;;;;18.85;3.53;;;9.50;99.90;;;;;;5100688;28;20035;-77